createdAt,value
2023-01-26T00:00:25.999Z,-2.79
2023-01-26T00:05:26.736Z,-2.73
2023-01-26T00:10:27.494Z,-2.52
2023-01-26T00:15:28.355Z,-2.42
2023-01-26T00:20:29.880Z,-2.24
2023-01-26T00:25:30.645Z,-2.27
2023-01-26T00:30:31.570Z,-2.25
2023-01-26T00:35:32.419Z,-2.37
2023-01-26T00:40:33.166Z,-2.25
2023-01-26T00:45:35.100Z,-2.36
2023-01-26T00:50:39.592Z,-2.37
2023-01-26T00:55:40.362Z,-2.21
2023-01-26T01:00:41.257Z,-2.47
2023-01-26T01:05:42.000Z,-2.38
2023-01-26T01:10:42.748Z,-2.46
2023-01-26T01:15:43.504Z,-2.33
2023-01-26T01:20:44.511Z,-2.38
2023-01-26T01:25:45.552Z,-2.54
2023-01-26T01:30:46.403Z,-2.59
2023-01-26T01:35:59.196Z,-2.56
2023-01-26T01:41:00.170Z,-2.70
2023-01-26T01:46:06.651Z,-2.68
2023-01-26T01:51:15.609Z,-2.88
2023-01-26T01:56:22.524Z,-2.93
2023-01-26T02:01:24.022Z,-2.78
2023-01-26T02:06:34.261Z,-2.86
2023-01-26T02:11:44.181Z,-2.85
2023-01-26T02:16:44.994Z,-2.89
2023-01-26T02:21:49.424Z,-2.71
2023-01-26T02:26:53.774Z,-2.74
2023-01-26T02:31:55.048Z,-2.77
2023-01-26T02:36:58.829Z,-2.69
2023-01-26T02:42:18.477Z,-2.68
2023-01-26T02:47:19.806Z,-2.69
2023-01-26T02:52:25.580Z,-2.73
2023-01-26T02:57:31.271Z,-2.55
2023-01-26T03:02:32.241Z,-2.59
2023-01-26T03:07:33.331Z,-2.68
2023-01-26T03:12:34.185Z,-2.59
2023-01-26T03:17:35.007Z,-2.49
2023-01-26T03:22:56.218Z,-2.29
2023-01-26T03:27:58.236Z,-2.40
2023-01-26T03:32:59.582Z,-2.40
2023-01-26T03:38:01.043Z,-2.48
2023-01-26T03:43:32.773Z,-2.40
2023-01-26T03:48:52.457Z,-2.43
2023-01-26T03:54:12.026Z,-2.55
2023-01-26T03:59:14.483Z,-2.46
2023-01-26T04:04:34.267Z,-2.58
2023-01-26T04:09:36.688Z,-2.76
2023-01-26T04:14:56.089Z,-2.62
2023-01-26T04:20:17.398Z,-2.59
2023-01-26T04:25:20.472Z,-2.44
2023-01-26T04:30:21.500Z,-2.41
2023-01-26T04:35:23.092Z,-2.45
2023-01-26T04:40:24.120Z,-2.43
2023-01-26T04:45:25.120Z,-2.47
2023-01-26T04:50:27.687Z,-2.60
2023-01-26T04:55:28.646Z,-2.77
2023-01-26T05:00:29.843Z,-2.86
2023-01-26T05:05:38.772Z,-2.73
2023-01-26T05:10:39.760Z,-2.63
2023-01-26T05:15:53.829Z,-2.75
2023-01-26T05:21:10.127Z,-2.64
2023-01-26T05:26:18.969Z,-2.63
2023-01-26T05:31:29.609Z,-2.51
2023-01-26T05:36:30.563Z,-2.63
2023-01-26T05:41:31.456Z,-2.58
2023-01-26T05:46:53.402Z,-2.53
2023-01-26T05:51:54.381Z,-2.61
2023-01-26T05:56:56.767Z,-2.58
2023-01-26T06:01:59.962Z,-2.56
2023-01-26T06:07:01.477Z,-2.41
2023-01-26T06:12:17.408Z,-2.62
2023-01-26T06:17:36.821Z,-2.73
2023-01-26T06:22:40.661Z,-2.65
2023-01-26T06:27:41.635Z,-2.64
2023-01-26T06:32:48.631Z,-2.98
2023-01-26T06:37:50.648Z,-3.11
2023-01-26T06:42:51.812Z,-3.00
2023-01-26T06:47:53.639Z,-3.06
2023-01-26T06:52:58.108Z,-3.03
2023-01-26T06:59:20.708Z,-2.98
2023-01-26T07:04:40.280Z,-3.05
2023-01-26T07:09:41.640Z,-3.17
2023-01-26T07:14:42.473Z,-3.09
2023-01-26T07:19:43.396Z,-3.19
2023-01-26T07:24:44.155Z,-3.09
2023-01-26T07:29:45.838Z,-2.96
2023-01-26T07:34:47.940Z,-2.91
2023-01-26T07:39:48.754Z,-2.78
2023-01-26T07:44:49.515Z,-2.83
2023-01-26T07:49:50.399Z,-2.84
2023-01-26T07:54:51.257Z,-2.78
2023-01-26T07:59:51.970Z,-2.80
2023-01-26T08:04:52.854Z,-2.73
2023-01-26T08:09:53.743Z,-2.85
2023-01-26T08:14:54.509Z,-2.84
2023-01-26T08:19:55.342Z,-2.71
2023-01-26T08:24:56.143Z,-2.81
2023-01-26T08:29:56.874Z,-2.81
2023-01-26T08:34:57.905Z,-2.79
2023-01-26T08:39:58.761Z,-2.67
2023-01-26T08:44:59.558Z,-2.56
2023-01-26T08:50:00.286Z,-2.68
2023-01-26T08:55:03.855Z,-2.91
2023-01-26T09:00:06.517Z,-2.88
2023-01-26T09:05:08.685Z,-2.67
2023-01-26T09:10:11.220Z,-2.50
2023-01-26T09:15:12.204Z,-2.62
2023-01-26T09:20:13.350Z,-2.66
2023-01-26T09:25:14.640Z,-2.04
2023-01-26T09:30:16.149Z,-2.21
2023-01-26T09:35:17.318Z,-2.42
2023-01-26T09:40:39.007Z,-2.54
2023-01-26T09:45:56.830Z,-2.68
2023-01-26T09:51:11.520Z,-2.57
2023-01-26T09:56:18.486Z,-2.47
2023-01-26T10:03:17.727Z,-2.51
2023-01-26T10:08:22.511Z,-2.40
2023-01-26T10:13:23.983Z,-2.17
2023-01-26T10:18:35.188Z,-1.98
2023-01-26T10:23:36.079Z,-1.91
2023-01-26T10:28:37.041Z,-1.93
2023-01-26T10:33:42.535Z,-2.12
2023-01-26T10:38:44.484Z,-2.09
2023-01-26T10:45:44.058Z,-2.12
2023-01-26T10:50:46.475Z,-2.16
2023-01-26T10:56:12.723Z,-2.16
2023-01-26T11:01:17.785Z,-2.06
2023-01-26T11:06:18.633Z,-2.07
2023-01-26T11:11:29.553Z,-1.83
2023-01-26T11:16:31.428Z,-1.99
2023-01-26T11:21:57.776Z,-2.04
2023-01-26T11:27:27.358Z,-2.04
2023-01-26T11:34:06.306Z,-2.08
2023-01-26T11:43:33.195Z,-2.08
2023-01-26T11:49:46.543Z,-2.09
2023-01-26T11:58:04.522Z,-1.70
2023-01-26T12:03:17.375Z,-1.72
2023-01-26T12:10:12.383Z,-1.42
2023-01-26T12:15:22.275Z,-1.00
2023-01-26T12:20:41.016Z,-0.94
2023-01-26T12:25:48.522Z,-0.87
2023-01-26T12:31:16.448Z,-1.10
2023-01-26T12:36:45.299Z,-0.69
2023-01-26T12:43:38.889Z,-0.95
2023-01-26T12:48:49.769Z,-0.96
2023-01-26T12:54:00.229Z,-1.05
2023-01-26T12:59:13.567Z,-1.10
2023-01-26T13:04:41.688Z,-1.01
2023-01-26T13:10:06.983Z,-1.19
2023-01-26T13:15:13.803Z,-1.19
2023-01-26T13:20:26.867Z,-1.08
2023-01-26T13:25:31.348Z,-0.95
2023-01-26T13:31:03.404Z,-1.10
2023-01-26T13:36:14.056Z,-0.54
2023-01-26T13:41:20.168Z,-0.76
2023-01-26T13:46:39.117Z,-0.78
2023-01-26T13:51:43.109Z,-0.78
2023-01-26T13:57:05.677Z,-0.62
2023-01-26T14:02:20.872Z,-0.89
2023-01-26T14:07:26.430Z,-0.98
2023-01-26T14:12:34.296Z,-1.06
2023-01-26T14:17:46.383Z,-1.08
2023-01-26T14:23:35.113Z,-1.02
2023-01-26T14:28:41.597Z,-1.14
2023-01-26T14:33:42.929Z,-1.24
2023-01-26T14:38:46.980Z,-1.18
2023-01-26T14:43:49.028Z,-1.19
2023-01-26T14:48:59.345Z,-1.26
2023-01-26T14:54:03.994Z,-1.18
2023-01-26T14:59:07.715Z,-1.13
2023-01-26T15:04:35.609Z,-1.25
2023-01-26T15:09:36.353Z,-1.19
2023-01-26T15:14:48.346Z,-1.30
2023-01-26T15:19:49.161Z,-1.21
2023-01-26T15:31:41.495Z,-1.31
2023-01-26T15:36:51.678Z,-1.38
2023-01-26T15:42:28.108Z,-1.51
2023-01-26T15:47:28.884Z,-1.34
2023-01-26T15:52:29.927Z,-1.41
2023-01-26T15:57:31.690Z,-1.48
2023-01-26T16:02:33.202Z,-1.37
2023-01-26T16:07:34.255Z,-1.55
2023-01-26T16:12:34.996Z,-1.42
2023-01-26T16:17:35.774Z,-1.46
2023-01-26T16:22:36.507Z,-1.50
2023-01-26T16:27:37.375Z,-1.41
2023-01-26T16:32:38.177Z,-1.56
2023-01-26T16:37:40.719Z,-1.72
2023-01-26T16:42:45.876Z,-1.68
2023-01-26T16:47:54.484Z,-1.63
2023-01-26T16:52:55.200Z,-1.55
2023-01-26T16:57:55.994Z,-1.68
2023-01-26T17:02:56.717Z,-1.63
2023-01-26T17:07:58.104Z,-1.46
2023-01-26T17:12:59.247Z,-1.64
2023-01-26T17:18:00.907Z,-1.47
2023-01-26T17:23:01.638Z,-1.34
2023-01-26T17:28:02.617Z,-1.62
2023-01-26T17:33:03.389Z,-1.57
2023-01-26T17:38:04.736Z,-1.57
2023-01-26T17:43:05.524Z,-1.63
2023-01-26T17:48:06.309Z,-1.45
2023-01-26T17:53:07.093Z,-1.48
2023-01-26T17:58:09.996Z,-1.44
2023-01-26T18:03:11.241Z,-1.33
2023-01-26T18:08:12.101Z,-1.53
2023-01-26T18:13:13.577Z,-1.33
2023-01-26T18:18:14.393Z,-1.23
2023-01-26T18:23:15.882Z,-1.24
2023-01-26T18:28:17.013Z,-1.18
2023-01-26T18:33:18.086Z,-1.33
2023-01-26T18:38:19.476Z,-1.32
2023-01-26T18:43:20.312Z,-1.27
2023-01-26T18:48:21.113Z,-1.40
2023-01-26T18:53:23.021Z,-1.37
2023-01-26T18:58:23.799Z,-1.25
2023-01-26T19:03:24.736Z,-1.19
2023-01-26T19:08:26.369Z,-1.20
2023-01-26T19:13:27.114Z,-1.20
2023-01-26T19:18:28.627Z,-1.17
2023-01-26T19:23:29.601Z,-1.14
2023-01-26T19:28:30.349Z,-0.93
2023-01-26T19:33:31.586Z,-1.00
2023-01-26T19:38:34.138Z,-0.88
2023-01-26T19:43:35.225Z,-0.92
2023-01-26T19:48:36.053Z,-0.90
2023-01-26T19:53:39.607Z,-1.00
2023-01-26T19:58:40.388Z,-0.84
2023-01-26T20:03:41.159Z,-0.97
2023-01-26T20:08:42.963Z,-0.90
2023-01-26T20:13:43.757Z,-0.85
2023-01-26T20:18:44.801Z,-0.84
2023-01-26T20:23:54.013Z,-0.83
2023-01-26T20:28:58.266Z,-0.84
2023-01-26T20:34:00.771Z,-0.80
2023-01-26T20:39:02.793Z,-0.72
2023-01-26T20:44:05.241Z,-0.61
2023-01-26T20:49:09.080Z,-0.64
2023-01-26T20:54:14.877Z,-0.65
2023-01-26T20:59:15.719Z,-0.71
2023-01-26T21:04:16.521Z,-0.68
2023-01-26T21:09:18.151Z,-0.66
2023-01-26T21:14:18.876Z,-0.62
2023-01-26T21:19:20.412Z,-0.56
2023-01-26T21:24:22.352Z,-0.58
2023-01-26T21:29:23.220Z,-0.46
2023-01-26T21:34:23.957Z,-0.53
2023-01-26T21:39:25.219Z,-0.43
2023-01-26T21:44:28.188Z,-0.44
2023-01-26T21:49:29.165Z,-0.05
2023-01-26T21:54:31.416Z,-0.13
2023-01-26T21:59:32.273Z,-0.16
2023-01-26T22:04:33.050Z,-0.28
2023-01-26T22:09:35.457Z,-0.25
2023-01-26T22:14:36.197Z,-0.14
2023-01-26T22:19:36.958Z,-0.16
2023-01-26T22:24:37.678Z,-0.17
2023-01-26T22:29:39.272Z,-0.16
2023-01-26T22:34:40.025Z,-0.13
2023-01-26T22:39:42.887Z,-0.18
2023-01-26T22:44:43.619Z,-0.08
2023-01-26T22:49:44.588Z,-0.19
2023-01-26T22:54:45.293Z,-0.20
2023-01-26T22:59:46.082Z,-0.07
2023-01-26T23:04:46.827Z,-0.06
2023-01-26T23:09:47.980Z,0.10
2023-01-26T23:14:48.710Z,-0.04
2023-01-26T23:19:49.479Z,0.00
2023-01-26T23:25:08.802Z,-0.09
2023-01-26T23:30:11.041Z,-0.16
2023-01-26T23:35:12.093Z,-0.12
2023-01-26T23:40:14.512Z,-0.14
2023-01-26T23:45:15.800Z,-0.13
2023-01-26T23:50:16.707Z,-0.10
2023-01-26T23:55:18.205Z,-0.08
